sensor_id;sensor_type;location;lat;lon;timestamp;P1;durP1;ratioP1;P2;durP2;ratioP2
74124;SDS011;62475;52.192;5.396;2022-12-07T00:02:10;8.90;;;4.50;;
74124;SDS011;62475;52.192;5.396;2022-12-07T00:04:42;7.70;;;4.60;;
74124;SDS011;62475;52.192;5.396;2022-12-07T00:07:07;10.52;;;5.15;;
74124;SDS011;62475;52.192;5.396;2022-12-07T00:09:32;10.38;;;5.35;;
74124;SDS011;62475;52.192;5.396;2022-12-07T00:11:57;11.60;;;5.83;;
74124;SDS011;62475;52.192;5.396;2022-12-07T00:14:25;10.68;;;5.70;;
74124;SDS011;62475;52.192;5.396;2022-12-07T00:16:51;12.07;;;6.03;;
74124;SDS011;62475;52.192;5.396;2022-12-07T00:19:16;11.18;;;5.45;;
74124;SDS011;62475;52.192;5.396;2022-12-07T00:21:42;11.48;;;4.93;;
74124;SDS011;62475;52.192;5.396;2022-12-07T00:24:07;10.27;;;5.22;;
74124;SDS011;62475;52.192;5.396;2022-12-07T00:26:34;13.07;;;5.75;;
74124;SDS011;62475;52.192;5.396;2022-12-07T00:29:15;12.55;;;5.00;;
74124;SDS011;62475;52.192;5.396;2022-12-07T00:31:42;11.57;;;5.15;;
74124;SDS011;62475;52.192;5.396;2022-12-07T00:34:11;11.70;;;5.20;;
74124;SDS011;62475;52.192;5.396;2022-12-07T00:36:39;8.07;;;5.07;;
74124;SDS011;62475;52.192;5.396;2022-12-07T00:39:05;8.20;;;4.88;;
74124;SDS011;62475;52.192;5.396;2022-12-07T00:41:30;9.18;;;5.07;;
74124;SDS011;62475;52.192;5.396;2022-12-07T00:43:56;11.07;;;4.75;;
74124;SDS011;62475;52.192;5.396;2022-12-07T00:46:21;12.07;;;5.13;;
74124;SDS011;62475;52.192;5.396;2022-12-07T00:48:48;11.52;;;4.55;;
74124;SDS011;62475;52.192;5.396;2022-12-07T00:51:14;14.93;;;5.68;;
74124;SDS011;62475;52.192;5.396;2022-12-07T00:53:41;10.80;;;4.55;;
74124;SDS011;62475;52.192;5.396;2022-12-07T00:56:11;10.60;;;4.65;;
74124;SDS011;62475;52.192;5.396;2022-12-07T00:58:38;8.30;;;4.68;;
74124;SDS011;62475;52.192;5.396;2022-12-07T01:01:04;12.55;;;4.05;;
74124;SDS011;62475;52.192;5.396;2022-12-07T01:03:30;8.98;;;4.30;;
74124;SDS011;62475;52.192;5.396;2022-12-07T01:05:56;14.93;;;4.15;;
74124;SDS011;62475;52.192;5.396;2022-12-07T01:08:23;10.13;;;4.00;;
74124;SDS011;62475;52.192;5.396;2022-12-07T01:10:58;10.75;;;4.05;;
74124;SDS011;62475;52.192;5.396;2022-12-07T01:13:23;6.30;;;3.15;;
74124;SDS011;62475;52.192;5.396;2022-12-07T01:15:49;10.73;;;3.28;;
74124;SDS011;62475;52.192;5.396;2022-12-07T01:18:14;8.05;;;3.28;;
74124;SDS011;62475;52.192;5.396;2022-12-07T01:20:39;9.50;;;3.30;;
74124;SDS011;62475;52.192;5.396;2022-12-07T01:23:05;12.95;;;3.05;;
74124;SDS011;62475;52.192;5.396;2022-12-07T01:25:31;9.10;;;2.80;;
74124;SDS011;62475;52.192;5.396;2022-12-07T01:27:56;7.03;;;2.75;;
74124;SDS011;62475;52.192;5.396;2022-12-07T01:30:21;9.83;;;3.43;;
74124;SDS011;62475;52.192;5.396;2022-12-07T01:32:47;6.60;;;2.58;;
74124;SDS011;62475;52.192;5.396;2022-12-07T01:35:13;6.28;;;2.83;;
74124;SDS011;62475;52.192;5.396;2022-12-07T01:37:39;8.68;;;2.38;;
74124;SDS011;62475;52.192;5.396;2022-12-07T01:40:06;11.00;;;2.92;;
74124;SDS011;62475;52.192;5.396;2022-12-07T01:42:33;7.00;;;2.28;;
74124;SDS011;62475;52.192;5.396;2022-12-07T01:47:47;7.78;;;2.28;;
74124;SDS011;62475;52.192;5.396;2022-12-07T01:50:18;4.15;;;1.83;;
74124;SDS011;62475;52.192;5.396;2022-12-07T01:52:45;5.43;;;2.10;;
74124;SDS011;62475;52.192;5.396;2022-12-07T01:55:15;6.13;;;2.13;;
74124;SDS011;62475;52.192;5.396;2022-12-07T01:57:45;5.50;;;2.00;;
74124;SDS011;62475;52.192;5.396;2022-12-07T02:00:13;6.85;;;2.20;;
74124;SDS011;62475;52.192;5.396;2022-12-07T02:02:53;4.22;;;1.80;;
74124;SDS011;62475;52.192;5.396;2022-12-07T02:05:23;4.50;;;1.48;;
74124;SDS011;62475;52.192;5.396;2022-12-07T02:07:49;11.07;;;2.28;;
74124;SDS011;62475;52.192;5.396;2022-12-07T02:10:18;4.47;;;1.63;;
74124;SDS011;62475;52.192;5.396;2022-12-07T02:12:47;7.47;;;1.30;;
74124;SDS011;62475;52.192;5.396;2022-12-07T02:15:16;3.65;;;1.58;;
74124;SDS011;62475;52.192;5.396;2022-12-07T02:17:48;8.02;;;1.75;;
74124;SDS011;62475;52.192;5.396;2022-12-07T02:20:17;5.93;;;1.23;;
74124;SDS011;62475;52.192;5.396;2022-12-07T02:23:07;6.00;;;1.38;;
74124;SDS011;62475;52.192;5.396;2022-12-07T02:25:54;6.72;;;1.50;;
74124;SDS011;62475;52.192;5.396;2022-12-07T02:31:31;3.83;;;1.55;;
74124;SDS011;62475;52.192;5.396;2022-12-07T02:33:59;7.30;;;1.73;;
74124;SDS011;62475;52.192;5.396;2022-12-07T02:42:11;4.30;;;1.70;;
74124;SDS011;62475;52.192;5.396;2022-12-07T02:44:31;4.80;;;1.35;;
74124;SDS011;62475;52.192;5.396;2022-12-07T02:47:02;7.45;;;1.67;;
74124;SDS011;62475;52.192;5.396;2022-12-07T02:49:35;7.40;;;1.58;;
74124;SDS011;62475;52.192;5.396;2022-12-07T02:52:02;2.75;;;1.00;;
74124;SDS011;62475;52.192;5.396;2022-12-07T02:54:27;7.30;;;1.75;;
74124;SDS011;62475;52.192;5.396;2022-12-07T02:56:58;6.88;;;1.48;;
74124;SDS011;62475;52.192;5.396;2022-12-07T03:08:02;7.22;;;1.80;;
74124;SDS011;62475;52.192;5.396;2022-12-07T03:13:29;11.68;;;2.05;;
74124;SDS011;62475;52.192;5.396;2022-12-07T03:18:25;4.30;;;1.83;;
74124;SDS011;62475;52.192;5.396;2022-12-07T03:20:58;7.35;;;1.60;;
74124;SDS011;62475;52.192;5.396;2022-12-07T03:23:28;6.85;;;1.75;;
74124;SDS011;62475;52.192;5.396;2022-12-07T03:26:00;6.53;;;1.40;;
74124;SDS011;62475;52.192;5.396;2022-12-07T03:28:31;2.53;;;1.13;;
74124;SDS011;62475;52.192;5.396;2022-12-07T03:39:17;6.68;;;1.42;;
74124;SDS011;62475;52.192;5.396;2022-12-07T03:41:50;3.25;;;1.15;;
74124;SDS011;62475;52.192;5.396;2022-12-07T03:44:16;6.90;;;1.40;;
74124;SDS011;62475;52.192;5.396;2022-12-07T03:49:26;7.03;;;1.42;;
74124;SDS011;62475;52.192;5.396;2022-12-07T03:55:05;6.47;;;1.70;;
74124;SDS011;62475;52.192;5.396;2022-12-07T03:57:36;6.07;;;1.92;;
74124;SDS011;62475;52.192;5.396;2022-12-07T04:00:05;7.95;;;1.80;;
74124;SDS011;62475;52.192;5.396;2022-12-07T04:02:32;10.10;;;1.92;;
74124;SDS011;62475;52.192;5.396;2022-12-07T04:04:58;6.95;;;2.10;;
74124;SDS011;62475;52.192;5.396;2022-12-07T04:07:24;7.55;;;1.73;;
74124;SDS011;62475;52.192;5.396;2022-12-07T04:09:50;8.98;;;1.60;;
74124;SDS011;62475;52.192;5.396;2022-12-07T04:12:15;5.90;;;1.98;;
74124;SDS011;62475;52.192;5.396;2022-12-07T04:14:40;4.32;;;1.52;;
74124;SDS011;62475;52.192;5.396;2022-12-07T04:17:06;5.75;;;1.67;;
74124;SDS011;62475;52.192;5.396;2022-12-07T04:19:32;5.25;;;1.27;;
74124;SDS011;62475;52.192;5.396;2022-12-07T04:21:59;5.15;;;1.52;;
74124;SDS011;62475;52.192;5.396;2022-12-07T04:24:26;5.95;;;1.63;;
74124;SDS011;62475;52.192;5.396;2022-12-07T04:26:51;3.67;;;1.67;;
74124;SDS011;62475;52.192;5.396;2022-12-07T04:29:20;4.43;;;1.42;;
74124;SDS011;62475;52.192;5.396;2022-12-07T04:31:48;7.47;;;1.48;;
74124;SDS011;62475;52.192;5.396;2022-12-07T04:34:14;8.30;;;1.83;;
74124;SDS011;62475;52.192;5.396;2022-12-07T04:36:40;7.35;;;1.92;;
74124;SDS011;62475;52.192;5.396;2022-12-07T04:39:07;4.88;;;1.45;;
74124;SDS011;62475;52.192;5.396;2022-12-07T04:41:33;6.88;;;2.17;;
74124;SDS011;62475;52.192;5.396;2022-12-07T04:44:00;5.85;;;1.92;;
74124;SDS011;62475;52.192;5.396;2022-12-07T04:46:28;6.38;;;1.80;;
74124;SDS011;62475;52.192;5.396;2022-12-07T04:48:55;5.45;;;1.77;;
74124;SDS011;62475;52.192;5.396;2022-12-07T04:51:25;5.20;;;1.83;;
74124;SDS011;62475;52.192;5.396;2022-12-07T04:53:52;7.05;;;1.60;;
74124;SDS011;62475;52.192;5.396;2022-12-07T04:56:17;8.93;;;1.70;;
74124;SDS011;62475;52.192;5.396;2022-12-07T04:58:44;3.42;;;1.35;;
74124;SDS011;62475;52.192;5.396;2022-12-07T05:01:11;7.32;;;1.88;;
74124;SDS011;62475;52.192;5.396;2022-12-07T05:03:37;2.65;;;1.10;;
74124;SDS011;62475;52.192;5.396;2022-12-07T05:06:03;8.38;;;1.60;;
74124;SDS011;62475;52.192;5.396;2022-12-07T05:08:29;4.93;;;0.80;;
74124;SDS011;62475;52.192;5.396;2022-12-07T05:10:55;3.42;;;1.20;;
74124;SDS011;62475;52.192;5.396;2022-12-07T05:13:20;3.70;;;1.52;;
74124;SDS011;62475;52.192;5.396;2022-12-07T05:15:48;3.10;;;1.27;;
74124;SDS011;62475;52.192;5.396;2022-12-07T05:18:14;6.57;;;0.90;;
74124;SDS011;62475;52.192;5.396;2022-12-07T05:20:40;3.35;;;0.73;;
74124;SDS011;62475;52.192;5.396;2022-12-07T05:23:05;7.45;;;1.10;;
74124;SDS011;62475;52.192;5.396;2022-12-07T05:25:31;4.63;;;1.15;;
74124;SDS011;62475;52.192;5.396;2022-12-07T05:27:56;4.45;;;0.88;;
74124;SDS011;62475;52.192;5.396;2022-12-07T05:30:22;7.13;;;0.95;;
74124;SDS011;62475;52.192;5.396;2022-12-07T05:32:48;5.80;;;0.52;;
74124;SDS011;62475;52.192;5.396;2022-12-07T05:35:14;2.45;;;0.73;;
74124;SDS011;62475;52.192;5.396;2022-12-07T05:37:39;2.13;;;0.85;;
74124;SDS011;62475;52.192;5.396;2022-12-07T05:40:04;4.78;;;0.80;;
74124;SDS011;62475;52.192;5.396;2022-12-07T05:42:31;4.78;;;0.95;;
74124;SDS011;62475;52.192;5.396;2022-12-07T05:44:56;2.50;;;0.73;;
74124;SDS011;62475;52.192;5.396;2022-12-07T05:47:22;2.75;;;0.73;;
74124;SDS011;62475;52.192;5.396;2022-12-07T05:49:48;3.05;;;0.47;;
74124;SDS011;62475;52.192;5.396;2022-12-07T05:52:14;1.52;;;0.60;;
74124;SDS011;62475;52.192;5.396;2022-12-07T05:54:39;2.58;;;0.80;;
74124;SDS011;62475;52.192;5.396;2022-12-07T05:57:05;4.95;;;0.82;;
74124;SDS011;62475;52.192;5.396;2022-12-07T05:59:30;1.80;;;0.40;;
74124;SDS011;62475;52.192;5.396;2022-12-07T06:02:09;3.92;;;0.80;;
74124;SDS011;62475;52.192;5.396;2022-12-07T06:04:37;5.75;;;1.10;;
74124;SDS011;62475;52.192;5.396;2022-12-07T06:07:05;6.40;;;0.82;;
74124;SDS011;62475;52.192;5.396;2022-12-07T06:09:30;6.32;;;0.63;;
74124;SDS011;62475;52.192;5.396;2022-12-07T06:11:57;5.47;;;1.02;;
74124;SDS011;62475;52.192;5.396;2022-12-07T06:14:41;3.33;;;1.02;;
74124;SDS011;62475;52.192;5.396;2022-12-07T06:17:07;6.22;;;1.10;;
74124;SDS011;62475;52.192;5.396;2022-12-07T06:19:33;10.38;;;1.20;;
74124;SDS011;62475;52.192;5.396;2022-12-07T06:21:58;6.05;;;0.82;;
74124;SDS011;62475;52.192;5.396;2022-12-07T06:24:23;2.83;;;1.00;;
74124;SDS011;62475;52.192;5.396;2022-12-07T06:26:49;6.43;;;1.17;;
74124;SDS011;62475;52.192;5.396;2022-12-07T06:29:15;12.63;;;1.52;;
74124;SDS011;62475;52.192;5.396;2022-12-07T06:31:41;3.63;;;1.15;;
74124;SDS011;62475;52.192;5.396;2022-12-07T06:34:12;5.20;;;1.27;;
74124;SDS011;62475;52.192;5.396;2022-12-07T06:36:39;4.53;;;0.98;;
74124;SDS011;62475;52.192;5.396;2022-12-07T06:39:05;8.10;;;0.90;;
74124;SDS011;62475;52.192;5.396;2022-12-07T06:41:32;4.93;;;1.08;;
74124;SDS011;62475;52.192;5.396;2022-12-07T06:43:58;6.97;;;1.30;;
74124;SDS011;62475;52.192;5.396;2022-12-07T06:46:25;5.57;;;1.13;;
74124;SDS011;62475;52.192;5.396;2022-12-07T06:48:50;7.65;;;1.45;;
74124;SDS011;62475;52.192;5.396;2022-12-07T06:51:15;7.15;;;1.33;;
74124;SDS011;62475;52.192;5.396;2022-12-07T06:53:41;3.55;;;1.10;;
74124;SDS011;62475;52.192;5.396;2022-12-07T06:56:06;7.07;;;1.50;;
74124;SDS011;62475;52.192;5.396;2022-12-07T06:58:32;8.70;;;2.08;;
74124;SDS011;62475;52.192;5.396;2022-12-07T07:00:58;5.25;;;1.58;;
74124;SDS011;62475;52.192;5.396;2022-12-07T07:03:24;3.72;;;1.85;;
74124;SDS011;62475;52.192;5.396;2022-12-07T07:05:49;6.57;;;2.05;;
74124;SDS011;62475;52.192;5.396;2022-12-07T07:08:14;8.85;;;2.28;;
74124;SDS011;62475;52.192;5.396;2022-12-07T07:10:40;6.25;;;2.25;;
74124;SDS011;62475;52.192;5.396;2022-12-07T07:13:05;8.27;;;1.95;;
74124;SDS011;62475;52.192;5.396;2022-12-07T07:15:31;6.13;;;1.90;;
74124;SDS011;62475;52.192;5.396;2022-12-07T07:17:58;2.95;;;1.58;;
74124;SDS011;62475;52.192;5.396;2022-12-07T07:20:24;8.73;;;2.17;;
74124;SDS011;62475;52.192;5.396;2022-12-07T07:22:49;12.00;;;2.60;;
74124;SDS011;62475;52.192;5.396;2022-12-07T07:25:15;3.70;;;1.50;;
74124;SDS011;62475;52.192;5.396;2022-12-07T07:27:40;7.38;;;1.85;;
74124;SDS011;62475;52.192;5.396;2022-12-07T07:30:07;5.30;;;1.63;;
74124;SDS011;62475;52.192;5.396;2022-12-07T07:32:33;7.63;;;2.10;;
74124;SDS011;62475;52.192;5.396;2022-12-07T07:34:59;7.20;;;1.83;;
74124;SDS011;62475;52.192;5.396;2022-12-07T07:37:24;4.47;;;1.75;;
74124;SDS011;62475;52.192;5.396;2022-12-07T07:39:50;5.47;;;1.80;;
74124;SDS011;62475;52.192;5.396;2022-12-07T07:42:15;4.10;;;1.52;;
74124;SDS011;62475;52.192;5.396;2022-12-07T07:44:41;8.27;;;2.28;;
74124;SDS011;62475;52.192;5.396;2022-12-07T07:47:06;5.97;;;1.92;;
74124;SDS011;62475;52.192;5.396;2022-12-07T07:49:31;6.10;;;2.35;;
74124;SDS011;62475;52.192;5.396;2022-12-07T07:51:57;6.65;;;2.63;;
74124;SDS011;62475;52.192;5.396;2022-12-07T07:54:22;8.77;;;2.40;;
74124;SDS011;62475;52.192;5.396;2022-12-07T07:56:47;10.88;;;2.20;;
74124;SDS011;62475;52.192;5.396;2022-12-07T07:59:13;8.52;;;2.88;;
74124;SDS011;62475;52.192;5.396;2022-12-07T08:01:39;12.65;;;3.05;;
74124;SDS011;62475;52.192;5.396;2022-12-07T08:04:05;7.13;;;3.00;;
74124;SDS011;62475;52.192;5.396;2022-12-07T08:06:30;13.90;;;3.08;;
74124;SDS011;62475;52.192;5.396;2022-12-07T08:08:55;6.53;;;2.95;;
74124;SDS011;62475;52.192;5.396;2022-12-07T08:11:23;9.88;;;3.00;;
74124;SDS011;62475;52.192;5.396;2022-12-07T08:13:49;8.73;;;2.53;;
74124;SDS011;62475;52.192;5.396;2022-12-07T08:16:14;6.60;;;3.08;;
74124;SDS011;62475;52.192;5.396;2022-12-07T08:18:40;9.88;;;2.90;;
74124;SDS011;62475;52.192;5.396;2022-12-07T08:21:11;12.43;;;3.47;;
74124;SDS011;62475;52.192;5.396;2022-12-07T08:23:37;11.95;;;3.83;;
74124;SDS011;62475;52.192;5.396;2022-12-07T08:26:04;8.30;;;2.78;;
74124;SDS011;62475;52.192;5.396;2022-12-07T08:28:30;10.27;;;3.25;;
74124;SDS011;62475;52.192;5.396;2022-12-07T08:31:03;8.50;;;3.10;;
74124;SDS011;62475;52.192;5.396;2022-12-07T08:33:33;6.30;;;2.65;;
74124;SDS011;62475;52.192;5.396;2022-12-07T08:36:02;6.65;;;2.13;;
74124;SDS011;62475;52.192;5.396;2022-12-07T08:38:30;5.82;;;2.30;;
74124;SDS011;62475;52.192;5.396;2022-12-07T08:40:55;11.35;;;2.67;;
74124;SDS011;62475;52.192;5.396;2022-12-07T08:43:22;5.43;;;2.22;;
74124;SDS011;62475;52.192;5.396;2022-12-07T08:45:47;7.45;;;2.40;;
74124;SDS011;62475;52.192;5.396;2022-12-07T08:48:24;4.18;;;1.63;;
74124;SDS011;62475;52.192;5.396;2022-12-07T08:50:50;5.65;;;1.83;;
74124;SDS011;62475;52.192;5.396;2022-12-07T08:53:16;3.72;;;1.27;;
74124;SDS011;62475;52.192;5.396;2022-12-07T08:55:43;3.30;;;1.42;;
74124;SDS011;62475;52.192;5.396;2022-12-07T08:58:09;3.67;;;1.50;;
74124;SDS011;62475;52.192;5.396;2022-12-07T09:00:35;4.22;;;1.10;;
74124;SDS011;62475;52.192;5.396;2022-12-07T09:03:00;3.28;;;1.30;;
74124;SDS011;62475;52.192;5.396;2022-12-07T09:05:26;2.67;;;1.10;;
74124;SDS011;62475;52.192;5.396;2022-12-07T09:07:52;3.08;;;1.00;;
74124;SDS011;62475;52.192;5.396;2022-12-07T09:10:22;5.18;;;1.30;;
74124;SDS011;62475;52.192;5.396;2022-12-07T09:12:48;7.13;;;1.23;;
74124;SDS011;62475;52.192;5.396;2022-12-07T09:15:13;2.03;;;1.05;;
74124;SDS011;62475;52.192;5.396;2022-12-07T09:17:39;6.70;;;1.35;;
74124;SDS011;62475;52.192;5.396;2022-12-07T09:20:05;4.15;;;1.25;;
74124;SDS011;62475;52.192;5.396;2022-12-07T09:22:31;4.60;;;1.20;;
74124;SDS011;62475;52.192;5.396;2022-12-07T09:24:57;4.03;;;1.30;;
74124;SDS011;62475;52.192;5.396;2022-12-07T09:27:23;3.42;;;1.13;;
74124;SDS011;62475;52.192;5.396;2022-12-07T09:29:49;5.65;;;1.73;;
74124;SDS011;62475;52.192;5.396;2022-12-07T09:32:14;6.28;;;1.88;;
74124;SDS011;62475;52.192;5.396;2022-12-07T09:34:40;5.30;;;1.50;;
74124;SDS011;62475;52.192;5.396;2022-12-07T09:37:05;2.97;;;1.10;;
74124;SDS011;62475;52.192;5.396;2022-12-07T09:39:31;7.57;;;1.58;;
74124;SDS011;62475;52.192;5.396;2022-12-07T09:41:57;9.38;;;2.80;;
74124;SDS011;62475;52.192;5.396;2022-12-07T09:44:24;2.58;;;1.20;;
74124;SDS011;62475;52.192;5.396;2022-12-07T09:46:51;5.28;;;2.10;;
74124;SDS011;62475;52.192;5.396;2022-12-07T09:49:19;4.22;;;1.77;;
74124;SDS011;62475;52.192;5.396;2022-12-07T09:51:46;3.67;;;1.58;;
74124;SDS011;62475;52.192;5.396;2022-12-07T09:54:13;5.13;;;1.67;;
74124;SDS011;62475;52.192;5.396;2022-12-07T09:56:40;2.95;;;1.55;;
74124;SDS011;62475;52.192;5.396;2022-12-07T09:59:09;7.30;;;1.52;;
74124;SDS011;62475;52.192;5.396;2022-12-07T10:01:41;4.28;;;1.52;;
74124;SDS011;62475;52.192;5.396;2022-12-07T10:04:12;5.20;;;1.77;;
74124;SDS011;62475;52.192;5.396;2022-12-07T10:06:40;6.75;;;1.42;;
74124;SDS011;62475;52.192;5.396;2022-12-07T10:09:11;6.10;;;1.63;;
74124;SDS011;62475;52.192;5.396;2022-12-07T10:14:28;5.18;;;1.60;;
74124;SDS011;62475;52.192;5.396;2022-12-07T10:16:55;3.88;;;1.63;;
74124;SDS011;62475;52.192;5.396;2022-12-07T10:19:28;3.72;;;1.25;;
74124;SDS011;62475;52.192;5.396;2022-12-07T10:22:09;5.88;;;1.98;;
74124;SDS011;62475;52.192;5.396;2022-12-07T10:24:39;3.60;;;1.17;;
74124;SDS011;62475;52.192;5.396;2022-12-07T10:27:29;5.15;;;1.70;;
74124;SDS011;62475;52.192;5.396;2022-12-07T10:29:56;8.05;;;1.67;;
74124;SDS011;62475;52.192;5.396;2022-12-07T10:32:31;3.85;;;1.50;;
74124;SDS011;62475;52.192;5.396;2022-12-07T10:37:44;5.30;;;1.45;;
74124;SDS011;62475;52.192;5.396;2022-12-07T10:40:24;3.75;;;1.33;;
74124;SDS011;62475;52.192;5.396;2022-12-07T10:43:03;9.15;;;1.70;;
74124;SDS011;62475;52.192;5.396;2022-12-07T10:48:16;4.47;;;1.60;;
74124;SDS011;62475;52.192;5.396;2022-12-07T10:53:46;5.82;;;1.25;;
74124;SDS011;62475;52.192;5.396;2022-12-07T11:01:42;4.47;;;1.90;;
74124;SDS011;62475;52.192;5.396;2022-12-07T11:10:01;4.63;;;1.13;;
74124;SDS011;62475;52.192;5.396;2022-12-07T11:20:44;7.18;;;1.40;;
74124;SDS011;62475;52.192;5.396;2022-12-07T11:29:19;4.07;;;1.30;;
74124;SDS011;62475;52.192;5.396;2022-12-07T11:32:13;6.25;;;1.40;;
74124;SDS011;62475;52.192;5.396;2022-12-07T11:34:59;3.05;;;1.10;;
74124;SDS011;62475;52.192;5.396;2022-12-07T11:37:29;6.03;;;1.20;;
74124;SDS011;62475;52.192;5.396;2022-12-07T11:39:59;8.57;;;1.27;;
74124;SDS011;62475;52.192;5.396;2022-12-07T11:42:49;4.03;;;1.13;;
74124;SDS011;62475;52.192;5.396;2022-12-07T11:45:28;4.25;;;1.00;;
74124;SDS011;62475;52.192;5.396;2022-12-07T11:53:38;3.85;;;0.95;;
74124;SDS011;62475;52.192;5.396;2022-12-07T11:58:45;3.53;;;0.80;;
74124;SDS011;62475;52.192;5.396;2022-12-07T12:06:34;2.35;;;1.23;;
74124;SDS011;62475;52.192;5.396;2022-12-07T12:09:06;3.80;;;1.42;;
74124;SDS011;62475;52.192;5.396;2022-12-07T12:20:05;4.80;;;1.17;;
74124;SDS011;62475;52.192;5.396;2022-12-07T12:22:45;6.15;;;1.08;;
74124;SDS011;62475;52.192;5.396;2022-12-07T12:25:20;3.08;;;1.00;;
74124;SDS011;62475;52.192;5.396;2022-12-07T12:27:49;3.50;;;1.00;;
74124;SDS011;62475;52.192;5.396;2022-12-07T12:33:05;6.07;;;0.75;;
74124;SDS011;62475;52.192;5.396;2022-12-07T12:36:16;5.13;;;1.38;;
74124;SDS011;62475;52.192;5.396;2022-12-07T12:46:53;4.43;;;0.90;;
74124;SDS011;62475;52.192;5.396;2022-12-07T12:49:42;4.15;;;1.08;;
74124;SDS011;62475;52.192;5.396;2022-12-07T12:55:00;3.25;;;0.80;;
74124;SDS011;62475;52.192;5.396;2022-12-07T12:57:37;3.22;;;1.02;;
74124;SDS011;62475;52.192;5.396;2022-12-07T13:02:48;1.35;;;0.32;;
74124;SDS011;62475;52.192;5.396;2022-12-07T13:05:19;4.10;;;0.90;;
74124;SDS011;62475;52.192;5.396;2022-12-07T13:15:36;1.42;;;0.50;;
74124;SDS011;62475;52.192;5.396;2022-12-07T13:23:37;3.53;;;0.40;;
74124;SDS011;62475;52.192;5.396;2022-12-07T13:26:19;2.20;;;0.40;;
74124;SDS011;62475;52.192;5.396;2022-12-07T13:28:51;2.05;;;0.55;;
74124;SDS011;62475;52.192;5.396;2022-12-07T13:36:56;0.90;;;0.50;;
74124;SDS011;62475;52.192;5.396;2022-12-07T13:39:24;3.63;;;0.90;;
74124;SDS011;62475;52.192;5.396;2022-12-07T13:41:51;2.88;;;1.17;;
74124;SDS011;62475;52.192;5.396;2022-12-07T13:44:22;1.73;;;0.80;;
74124;SDS011;62475;52.192;5.396;2022-12-07T13:49:36;3.05;;;0.82;;
74124;SDS011;62475;52.192;5.396;2022-12-07T13:57:31;1.48;;;0.63;;
74124;SDS011;62475;52.192;5.396;2022-12-07T13:59:59;4.28;;;1.08;;
74124;SDS011;62475;52.192;5.396;2022-12-07T14:02:30;3.22;;;0.55;;
74124;SDS011;62475;52.192;5.396;2022-12-07T14:05:08;1.85;;;0.73;;
74124;SDS011;62475;52.192;5.396;2022-12-07T14:07:56;3.10;;;1.08;;
74124;SDS011;62475;52.192;5.396;2022-12-07T14:10:33;1.85;;;0.60;;
74124;SDS011;62475;52.192;5.396;2022-12-07T14:13:23;2.70;;;0.80;;
74124;SDS011;62475;52.192;5.396;2022-12-07T14:15:52;4.97;;;1.10;;
74124;SDS011;62475;52.192;5.396;2022-12-07T14:18:26;3.45;;;1.00;;
74124;SDS011;62475;52.192;5.396;2022-12-07T14:21:02;4.60;;;1.30;;
74124;SDS011;62475;52.192;5.396;2022-12-07T14:23:44;4.80;;;1.02;;
74124;SDS011;62475;52.192;5.396;2022-12-07T14:28:40;4.72;;;0.95;;
74124;SDS011;62475;52.192;5.396;2022-12-07T14:31:13;1.35;;;0.90;;
74124;SDS011;62475;52.192;5.396;2022-12-07T14:33:41;4.10;;;1.40;;
74124;SDS011;62475;52.192;5.396;2022-12-07T14:36:08;5.85;;;2.63;;
74124;SDS011;62475;52.192;5.396;2022-12-07T14:38:39;10.07;;;2.83;;
74124;SDS011;62475;52.192;5.396;2022-12-07T14:41:12;8.30;;;2.55;;
74124;SDS011;62475;52.192;5.396;2022-12-07T14:43:58;4.20;;;1.52;;
74124;SDS011;62475;52.192;5.396;2022-12-07T14:46:23;5.28;;;2.90;;
74124;SDS011;62475;52.192;5.396;2022-12-07T14:48:49;5.13;;;2.60;;
74124;SDS011;62475;52.192;5.396;2022-12-07T14:51:14;7.90;;;2.15;;
74124;SDS011;62475;52.192;5.396;2022-12-07T14:53:45;5.20;;;1.90;;
74124;SDS011;62475;52.192;5.396;2022-12-07T14:56:13;5.78;;;2.25;;
74124;SDS011;62475;52.192;5.396;2022-12-07T14:58:39;6.30;;;1.77;;
74124;SDS011;62475;52.192;5.396;2022-12-07T15:01:05;6.88;;;2.13;;
74124;SDS011;62475;52.192;5.396;2022-12-07T15:03:30;5.05;;;2.10;;
74124;SDS011;62475;52.192;5.396;2022-12-07T15:05:56;7.07;;;2.33;;
74124;SDS011;62475;52.192;5.396;2022-12-07T15:08:21;4.95;;;1.30;;
74124;SDS011;62475;52.192;5.396;2022-12-07T15:10:46;4.68;;;1.23;;
74124;SDS011;62475;52.192;5.396;2022-12-07T15:13:12;5.50;;;1.52;;
74124;SDS011;62475;52.192;5.396;2022-12-07T15:15:55;7.78;;;2.00;;
74124;SDS011;62475;52.192;5.396;2022-12-07T15:18:22;4.30;;;1.83;;
74124;SDS011;62475;52.192;5.396;2022-12-07T15:20:49;3.38;;;1.80;;
74124;SDS011;62475;52.192;5.396;2022-12-07T15:23:14;2.30;;;1.02;;
74124;SDS011;62475;52.192;5.396;2022-12-07T15:25:40;2.22;;;1.05;;
74124;SDS011;62475;52.192;5.396;2022-12-07T15:28:06;3.15;;;1.90;;
74124;SDS011;62475;52.192;5.396;2022-12-07T15:30:32;2.73;;;2.00;;
74124;SDS011;62475;52.192;5.396;2022-12-07T15:32:57;3.33;;;1.95;;
74124;SDS011;62475;52.192;5.396;2022-12-07T15:35:22;7.20;;;4.82;;
74124;SDS011;62475;52.192;5.396;2022-12-07T15:37:48;4.40;;;1.35;;
74124;SDS011;62475;52.192;5.396;2022-12-07T15:40:13;4.45;;;1.73;;
74124;SDS011;62475;52.192;5.396;2022-12-07T15:42:39;5.82;;;2.15;;
74124;SDS011;62475;52.192;5.396;2022-12-07T15:45:05;4.82;;;2.67;;
74124;SDS011;62475;52.192;5.396;2022-12-07T15:47:33;7.57;;;2.97;;
74124;SDS011;62475;52.192;5.396;2022-12-07T15:50:01;9.23;;;3.63;;
74124;SDS011;62475;52.192;5.396;2022-12-07T15:52:31;5.00;;;2.40;;
74124;SDS011;62475;52.192;5.396;2022-12-07T15:54:56;7.32;;;3.35;;
74124;SDS011;62475;52.192;5.396;2022-12-07T15:57:22;6.97;;;2.97;;
74124;SDS011;62475;52.192;5.396;2022-12-07T15:59:47;7.05;;;2.47;;
74124;SDS011;62475;52.192;5.396;2022-12-07T16:02:13;5.47;;;2.60;;
74124;SDS011;62475;52.192;5.396;2022-12-07T16:04:38;6.43;;;2.85;;
74124;SDS011;62475;52.192;5.396;2022-12-07T16:07:03;5.18;;;3.25;;
74124;SDS011;62475;52.192;5.396;2022-12-07T16:09:29;5.68;;;3.60;;
74124;SDS011;62475;52.192;5.396;2022-12-07T16:11:54;7.93;;;3.55;;
74124;SDS011;62475;52.192;5.396;2022-12-07T16:14:20;5.75;;;3.00;;
74124;SDS011;62475;52.192;5.396;2022-12-07T16:16:46;7.80;;;3.03;;
74124;SDS011;62475;52.192;5.396;2022-12-07T16:19:12;7.55;;;2.50;;
74124;SDS011;62475;52.192;5.396;2022-12-07T16:21:37;3.60;;;2.00;;
74124;SDS011;62475;52.192;5.396;2022-12-07T16:24:03;5.30;;;2.22;;
74124;SDS011;62475;52.192;5.396;2022-12-07T16:26:30;6.22;;;2.30;;
74124;SDS011;62475;52.192;5.396;2022-12-07T16:28:56;4.10;;;2.47;;
74124;SDS011;62475;52.192;5.396;2022-12-07T16:31:22;4.07;;;1.80;;
74124;SDS011;62475;52.192;5.396;2022-12-07T16:33:49;4.80;;;1.85;;
74124;SDS011;62475;52.192;5.396;2022-12-07T16:36:17;4.88;;;2.30;;
74124;SDS011;62475;52.192;5.396;2022-12-07T16:38:43;6.60;;;1.77;;
74124;SDS011;62475;52.192;5.396;2022-12-07T16:41:08;9.25;;;2.58;;
74124;SDS011;62475;52.192;5.396;2022-12-07T16:43:34;8.20;;;3.22;;
74124;SDS011;62475;52.192;5.396;2022-12-07T16:46:00;7.78;;;2.78;;
74124;SDS011;62475;52.192;5.396;2022-12-07T16:48:25;4.78;;;2.30;;
74124;SDS011;62475;52.192;5.396;2022-12-07T16:50:50;5.05;;;2.58;;
74124;SDS011;62475;52.192;5.396;2022-12-07T16:53:18;4.68;;;2.15;;
74124;SDS011;62475;52.192;5.396;2022-12-07T16:55:44;5.53;;;2.40;;
74124;SDS011;62475;52.192;5.396;2022-12-07T16:58:11;7.70;;;3.28;;
74124;SDS011;62475;52.192;5.396;2022-12-07T17:00:38;7.47;;;3.67;;
74124;SDS011;62475;52.192;5.396;2022-12-07T17:03:04;5.65;;;3.03;;
74124;SDS011;62475;52.192;5.396;2022-12-07T17:05:30;5.45;;;3.47;;
74124;SDS011;62475;52.192;5.396;2022-12-07T17:07:56;9.00;;;4.15;;
74124;SDS011;62475;52.192;5.396;2022-12-07T17:10:22;8.80;;;3.72;;
74124;SDS011;62475;52.192;5.396;2022-12-07T17:12:48;6.43;;;3.75;;
74124;SDS011;62475;52.192;5.396;2022-12-07T17:15:14;8.20;;;3.72;;
74124;SDS011;62475;52.192;5.396;2022-12-07T17:17:45;7.25;;;4.15;;